createdAt,value
2019-04-14T00:01:45.729Z,100093.44
2019-04-14T00:12:04.339Z,100085.70
2019-04-14T00:17:07.216Z,100086.68
2019-04-14T00:22:11.708Z,100084.39
2019-04-14T00:27:17.167Z,100079.54
2019-04-14T00:37:27.352Z,100107.42
2019-04-14T00:42:32.047Z,100127.26
2019-04-14T00:47:48.404Z,100112.11
2019-04-14T00:52:42.269Z,100153.19
2019-04-14T00:57:46.509Z,100143.86
2019-04-14T01:02:51.572Z,100161.27
2019-04-14T01:07:56.578Z,100147.58
2019-04-14T01:13:00.928Z,100068.11
2019-04-14T01:18:05.754Z,100119.22
2019-04-14T01:23:10.620Z,100123.21
2019-04-14T01:28:15.751Z,100094.95
2019-04-14T01:33:20.589Z,100099.59
2019-04-14T01:38:25.550Z,100093.44
2019-04-14T01:43:30.029Z,100076.56
2019-04-14T01:48:34.669Z,100063.55
2019-04-14T01:53:40.015Z,100061.37
2019-04-14T01:58:44.689Z,100048.99
2019-04-14T02:03:49.888Z,100067.11
2019-04-14T02:08:54.691Z,100062.81
2019-04-14T02:13:59.378Z,100067.39
2019-04-14T02:19:04.603Z,100052.08
2019-04-14T02:24:09.248Z,100068.75
2019-04-14T02:29:14.402Z,100064.53
2019-04-14T02:55:04.336Z,100068.72
2019-04-14T03:00:19.808Z,100062.42
2019-04-14T03:05:17.614Z,100108.93
2019-04-14T03:10:40.519Z,100069.56
2019-04-14T03:20:39.548Z,100090.50
2019-04-14T03:25:45.392Z,100083.25
2019-04-14T03:36:30.348Z,100093.41
2019-04-14T03:41:08.892Z,100078.81
2019-04-14T03:51:21.208Z,100072.52
2019-04-14T03:56:16.436Z,100069.15
2019-04-14T04:01:19.865Z,100039.56
2019-04-14T04:06:24.659Z,100029.41
2019-04-14T04:11:30.046Z,100026.92
2019-04-14T04:16:35.433Z,100042.70
2019-04-14T04:21:40.146Z,100059.28
2019-04-14T04:26:45.076Z,100050.39
2019-04-14T04:31:50.397Z,100080.42
2019-04-14T04:36:55.318Z,100090.05
2019-04-14T04:42:00.392Z,100096.67
2019-04-14T04:47:05.715Z,100077.52
2019-04-14T04:52:12.665Z,100073.28
2019-04-14T04:57:15.926Z,100067.77
2019-04-14T05:02:20.042Z,100068.09
2019-04-14T05:07:25.243Z,100081.67
2019-04-14T05:12:30.615Z,100076.00
2019-04-14T05:17:35.017Z,100100.81
2019-04-14T05:22:39.776Z,100094.71
2019-04-14T05:27:45.181Z,100087.70
2019-04-14T05:32:50.147Z,100091.58
2019-04-14T05:37:55.099Z,100086.09
2019-04-14T05:43:00.238Z,100074.20
2019-04-14T05:48:05.347Z,100094.56
2019-04-14T05:53:10.985Z,100080.89
2019-04-14T05:58:16.405Z,100099.02
2019-04-14T06:03:21.316Z,100080.33
2019-04-14T06:08:26.694Z,100030.45
2019-04-14T06:13:30.874Z,100089.02
2019-04-14T06:18:35.039Z,100096.81
2019-04-14T06:23:39.209Z,100062.23
2019-04-14T06:28:43.509Z,100016.29
2019-04-14T06:33:48.807Z,100075.49
2019-04-14T06:38:53.092Z,100083.76
2019-04-14T06:43:57.169Z,100058.80
2019-04-14T06:49:01.447Z,100061.04
2019-04-14T06:54:05.750Z,100075.94
2019-04-14T06:59:13.095Z,100073.81
2019-04-14T07:04:17.426Z,100060.62
2019-04-14T07:09:21.747Z,100090.24
2019-04-14T07:14:25.906Z,100093.38
2019-04-14T07:19:30.384Z,100088.41
2019-04-14T07:24:34.862Z,100109.08
2019-04-14T07:29:39.406Z,100104.91
2019-04-14T07:34:43.675Z,100104.58
2019-04-14T07:39:48.131Z,100096.09
2019-04-14T07:44:52.329Z,100108.42
2019-04-14T07:49:56.724Z,100129.25
2019-04-14T07:55:00.907Z,100117.39
2019-04-14T08:00:06.101Z,100107.98
2019-04-14T08:05:10.576Z,100096.00
2019-04-14T08:10:15.176Z,100080.31
2019-04-14T08:15:19.922Z,100065.25
2019-04-14T08:20:27.769Z,100062.78
2019-04-14T08:25:30.495Z,100022.77
2019-04-14T08:30:35.161Z,100059.58
2019-04-14T08:35:41.159Z,100060.06
2019-04-14T08:40:45.548Z,100060.69
2019-04-14T08:45:49.976Z,100073.09
2019-04-14T08:50:54.275Z,100056.22
2019-04-14T08:55:58.762Z,100055.30
2019-04-14T09:01:03.196Z,100113.59
2019-04-14T09:06:07.478Z,100060.33
2019-04-14T09:11:12.021Z,99990.48
2019-04-14T09:16:16.660Z,100023.55
2019-04-14T09:21:21.035Z,100057.31
2019-04-14T09:26:25.287Z,100046.77
2019-04-14T09:31:29.878Z,100055.19
2019-04-14T09:36:34.248Z,100052.73
2019-04-14T09:41:38.917Z,100005.46
2019-04-14T09:46:43.572Z,100048.88
2019-04-14T09:51:48.149Z,100009.09
2019-04-14T09:56:52.628Z,100023.98
2019-04-14T10:01:57.203Z,100030.57
2019-04-14T10:07:02.933Z,100021.45
2019-04-14T10:12:07.488Z,100051.61
2019-04-14T10:17:11.863Z,100081.55
2019-04-14T10:22:16.175Z,100107.61
2019-04-14T10:27:20.469Z,100129.06
2019-04-14T10:32:24.978Z,100134.92
2019-04-14T10:37:29.222Z,100145.15
2019-04-14T10:42:33.571Z,100106.09
2019-04-14T10:47:37.855Z,100102.16
2019-04-14T10:52:42.112Z,100116.64
2019-04-14T10:57:48.791Z,100120.01
2019-04-14T11:02:53.269Z,100105.41
2019-04-14T11:07:57.611Z,100118.33
2019-04-14T11:13:02.891Z,100127.47
2019-04-14T11:18:07.447Z,100106.80
2019-04-14T11:23:11.829Z,100101.43
2019-04-14T11:28:16.077Z,100099.00
2019-04-14T11:33:20.356Z,100092.23
2019-04-14T11:38:24.640Z,100099.44
2019-04-14T11:43:28.992Z,100110.42
2019-04-14T11:48:33.590Z,100093.55
2019-04-14T11:53:37.984Z,100053.20
2019-04-14T11:58:42.732Z,100106.52
2019-04-14T12:03:49.700Z,100082.55
2019-04-14T12:08:54.309Z,100080.25
2019-04-14T12:14:00.409Z,100052.27
2019-04-14T12:19:05.071Z,100068.74
2019-04-14T12:24:09.211Z,100053.84
2019-04-14T12:29:14.130Z,100057.28
2019-04-14T12:34:19.029Z,100074.95
2019-04-14T12:39:24.394Z,100081.94
2019-04-14T12:44:29.609Z,100081.41
2019-04-14T12:49:34.075Z,100077.91
2019-04-14T12:54:38.702Z,100098.94
2019-04-14T12:59:43.115Z,100089.97
2019-04-14T13:04:47.453Z,100089.86
2019-04-14T13:09:51.871Z,100108.02
2019-04-14T13:14:57.668Z,100105.72
2019-04-14T13:20:02.053Z,100125.03
2019-04-14T13:25:06.749Z,100092.30
2019-04-14T13:30:11.312Z,100102.30
2019-04-14T13:35:15.848Z,100113.06
2019-04-14T13:40:20.296Z,100117.28
2019-04-14T13:45:24.550Z,100094.34
2019-04-14T13:50:29.452Z,100103.05
2019-04-14T13:55:33.710Z,100098.30
2019-04-14T14:00:38.014Z,100111.67
2019-04-14T14:05:43.831Z,100089.48
2019-04-14T14:10:48.147Z,100111.41
2019-04-14T14:15:52.727Z,100095.92
2019-04-14T14:20:57.358Z,100082.66
2019-04-14T14:26:01.558Z,100098.22
2019-04-14T14:31:05.944Z,100086.54
2019-04-14T14:36:10.696Z,100072.38
2019-04-14T14:41:15.436Z,100084.55
2019-04-14T14:46:19.755Z,100077.43
2019-04-14T14:51:24.065Z,100086.39
2019-04-14T14:56:28.548Z,100066.12
2019-04-14T15:01:34.106Z,100069.66
2019-04-14T15:06:38.471Z,100070.45
2019-04-14T15:11:42.865Z,100072.28
2019-04-14T15:16:47.380Z,100065.98
2019-04-14T15:21:59.702Z,100071.84
2019-04-14T15:27:04.371Z,100064.80
2019-04-14T15:32:08.764Z,100060.59
2019-04-14T15:37:12.982Z,100073.89
2019-04-14T15:42:17.456Z,100061.38
2019-04-14T15:47:21.871Z,100054.42
2019-04-14T15:52:26.457Z,100053.72
2019-04-14T15:57:30.743Z,100055.55
2019-04-14T16:02:35.070Z,100057.72
2019-04-14T16:07:39.604Z,100037.20
2019-04-14T16:12:44.293Z,99975.06
2019-04-14T16:17:49.536Z,100022.48
2019-04-14T16:22:53.844Z,100016.34
2019-04-14T16:27:58.251Z,100003.94
2019-04-14T16:33:02.464Z,99998.41
2019-04-14T16:38:06.902Z,99979.73
2019-04-14T16:43:12.626Z,99972.78
2019-04-14T16:48:17.255Z,99968.56
2019-04-14T16:53:22.651Z,99954.86
2019-04-14T16:58:26.912Z,99960.77
2019-04-14T17:03:31.522Z,99969.25
2019-04-14T17:08:35.802Z,99964.03
2019-04-14T17:13:40.447Z,99971.69
2019-04-14T17:18:45.408Z,99977.63
2019-04-14T17:23:49.662Z,99977.89
2019-04-14T17:28:54.040Z,99960.83
2019-04-14T17:33:58.482Z,99958.53
2019-04-14T17:39:02.760Z,99979.59
2019-04-14T17:44:07.045Z,99956.13
2019-04-14T17:54:29.217Z,99957.07
2019-04-14T18:04:46.021Z,99919.42
2019-04-14T18:09:50.310Z,99929.00
2019-04-14T18:14:54.784Z,99916.72
2019-04-14T18:19:59.062Z,99922.92
2019-04-14T18:25:04.397Z,99920.84
2019-04-14T18:30:08.744Z,99921.48
2019-04-14T18:35:13.002Z,99914.48
2019-04-14T18:40:17.202Z,99911.06
2019-04-14T18:45:21.538Z,99896.83
2019-04-14T18:50:25.883Z,99916.40
2019-04-14T18:55:33.284Z,99916.28
2019-04-14T19:00:37.383Z,99911.32
2019-04-14T19:05:43.836Z,99902.24
2019-04-14T19:10:48.043Z,99913.39
2019-04-14T19:15:52.361Z,99908.63
2019-04-14T19:20:56.682Z,99905.02
2019-04-14T19:26:00.966Z,99920.97
2019-04-14T19:31:05.275Z,99892.81
2019-04-14T19:36:09.723Z,99914.63
2019-04-14T19:41:14.028Z,99925.02
2019-04-14T19:46:18.603Z,99936.23
2019-04-14T19:51:22.849Z,99948.56
2019-04-14T19:56:27.568Z,99960.06
2019-04-14T20:01:32.262Z,99951.03
2019-04-14T20:06:36.518Z,99940.83
2019-04-14T20:11:41.422Z,99952.95
2019-04-14T20:16:45.642Z,99942.22
2019-04-14T20:21:49.884Z,99934.02
2019-04-14T20:26:54.103Z,99920.28
2019-04-14T20:32:00.542Z,99923.11
2019-04-14T20:37:04.943Z,99908.58
2019-04-14T20:42:09.282Z,99892.48
2019-04-14T20:47:13.784Z,99898.12
2019-04-14T20:52:18.125Z,99907.34
2019-04-14T20:57:22.567Z,99899.97
2019-04-14T21:02:27.316Z,99897.03
2019-04-14T21:07:31.803Z,99876.41
2019-04-14T21:12:36.336Z,99870.41
2019-04-14T21:17:40.722Z,99835.17
2019-04-14T21:22:45.305Z,99855.48
2019-04-14T21:27:49.786Z,99842.81
2019-04-14T21:32:54.336Z,99795.91
2019-04-14T21:37:58.865Z,99838.08
2019-04-14T21:43:03.103Z,99818.56
2019-04-14T21:48:07.649Z,99825.28
2019-04-14T21:53:12.102Z,99811.03
2019-04-14T21:58:16.335Z,99822.23
2019-04-14T22:03:20.726Z,99817.86
2019-04-14T22:08:25.533Z,99818.57
2019-04-14T22:13:30.006Z,99845.97
2019-04-14T22:18:34.346Z,99829.41
2019-04-14T22:23:39.962Z,99837.22
2019-04-14T22:28:44.403Z,99825.92
2019-04-14T22:33:49.324Z,99828.27
2019-04-14T22:38:53.604Z,99804.27
2019-04-14T22:43:57.843Z,99801.39
2019-04-14T22:49:02.023Z,99784.47
2019-04-14T22:54:06.402Z,99766.45
2019-04-14T22:59:10.743Z,99833.15
2019-04-14T23:04:14.919Z,99797.78
2019-04-14T23:09:19.104Z,99801.94
2019-04-14T23:14:23.524Z,99809.63
2019-04-14T23:19:27.699Z,99818.11
2019-04-14T23:24:32.042Z,99792.19
2019-04-14T23:29:36.337Z,99793.19
2019-04-14T23:34:40.668Z,99804.06
2019-04-14T23:39:44.960Z,99799.52
2019-04-14T23:44:49.210Z,99765.05
2019-04-14T23:49:53.387Z,99761.86
2019-04-14T23:54:57.670Z,99750.85
